Time;durP1;ratioP1;P1;durP2;ratioP2;P2;SDS_P1;SDS_P2;PMS_P1;PMS_P2;Temp;Humidity;BMP_temperature;BMP_pressure;BME280_temperature;BME280_humidity;BME280_pressure;Samples;Min_cycle;Max_cycle;Signal;HPM_P1;HPM_P2
2023/05/03 00:00:35;;;;;;;9.13;2.33;;;4.50;99.90;;;;;;4879324;28;92160;-34
2023/05/03 00:03:05;;;;;;;4.13;1.98;;;4.50;99.90;;;;;;4879552;28;94690;-33
2023/05/03 00:05:31;;;;;;;1.65;1.55;;;4.50;99.90;;;;;;4879768;28;96272;-36
2023/05/03 00:07:57;;;;;;;5.00;2.85;;;4.50;99.90;;;;;;4879038;28;93571;-32
2023/05/03 00:10:23;;;;;;;6.75;2.80;;;4.50;99.90;;;;;;4878534;28;93093;-33
2023/05/03 00:12:48;;;;;;;1.77;1.67;;;4.40;99.90;;;;;;4878701;28;95431;-33
2023/05/03 00:15:14;;;;;;;4.13;1.70;;;4.30;99.90;;;;;;4878581;28;94419;-33
2023/05/03 00:17:40;;;;;;;3.15;1.83;;;4.30;99.90;;;;;;4878267;28;93042;-32
2023/05/03 00:20:07;;;;;;;5.25;2.38;;;4.30;99.90;;;;;;4867739;28;94542;-33
2023/05/03 00:22:32;;;;;;;5.35;1.98;;;4.20;99.90;;;;;;4877969;28;95574;-30
2023/05/03 00:24:59;;;;;;;2.55;2.00;;;4.20;99.90;;;;;;4878801;28;95258;-31
2023/05/03 00:27:25;;;;;;;2.25;2.00;;;4.20;99.90;;;;;;4878508;28;94092;-31
2023/05/03 00:29:51;;;;;;;5.97;2.42;;;4.10;99.90;;;;;;4878817;28;93756;-34
2023/05/03 00:32:21;;;;;;;2.83;1.58;;;4.10;99.90;;;;;;4878300;28;94779;-29
2023/05/03 00:34:55;;;;;;;2.42;2.22;;;4.20;99.90;;;;;;4877318;28;94558;-33
2023/05/03 00:37:21;;;;;;;2.38;2.22;;;4.10;99.90;;;;;;4878407;28;93704;-31
2023/05/03 00:39:46;;;;;;;6.55;2.30;;;4.10;99.90;;;;;;4879255;28;94123;-31
2023/05/03 00:42:12;;;;;;;4.70;2.33;;;4.10;99.90;;;;;;4877803;28;95035;-30
2023/05/03 00:44:38;;;;;;;3.00;2.28;;;4.10;99.90;;;;;;4878619;28;93837;-32
2023/05/03 00:47:03;;;;;;;3.00;2.22;;;4.10;99.90;;;;;;4878161;28;95000;-31
2023/05/03 00:49:29;;;;;;;2.38;1.73;;;4.10;99.90;;;;;;4878282;28;94522;-35
2023/05/03 00:51:58;;;;;;;2.17;2.03;;;4.10;99.90;;;;;;4878931;28;95574;-31
2023/05/03 00:54:25;;;;;;;;;;;4.10;99.90;;;;;;4878167;28;95291;-30
2023/05/03 00:56:51;;;;;;;1.60;1.50;;;4.00;99.90;;;;;;4880190;28;93587;-32
2023/05/03 00:59:17;;;;;;;3.92;2.60;;;4.00;99.90;;;;;;4878188;28;94815;-36
2023/05/03 01:01:50;;;;;;;7.53;3.38;;;4.10;99.90;;;;;;4878819;28;95011;-32
2023/05/03 01:04:16;;;;;;;2.88;2.40;;;4.10;99.90;;;;;;4882098;28;94879;-36
2023/05/03 01:07:02;;;;;;;2.97;2.08;;;4.10;99.90;;;;;;4880811;28;94583;-31
2023/05/03 01:10:06;;;;;;;2.20;2.08;;;4.20;99.90;;;;;;4881548;28;92147;-35
2023/05/03 01:12:54;;;;;;;9.93;3.10;;;4.20;99.90;;;;;;4859698;28;95247;-34
2023/05/03 01:15:24;;;;;;;6.28;2.35;;;4.20;99.90;;;;;;4871525;28;93967;-35
2023/05/03 01:17:56;;;;;;;2.60;2.05;;;4.30;99.90;;;;;;4879191;28;93818;-32
2023/05/03 01:20:24;;;;;;;4.03;2.03;;;4.20;99.90;;;;;;4872358;28;92463;-29
2023/05/03 01:22:58;;;;;;;5.78;1.73;;;4.20;99.90;;;;;;4881952;28;95037;-32
2023/05/03 01:25:25;;;;;;;5.72;2.42;;;4.20;99.90;;;;;;4881097;28;94845;-32
2023/05/03 01:27:51;;;;;;;2.55;2.35;;;4.20;99.90;;;;;;4881431;28;94327;-33
2023/05/03 01:30:17;;;;;;;2.03;1.60;;;4.20;99.90;;;;;;4881730;28;92541;-34
2023/05/03 01:33:24;;;;;;;2.35;1.98;;;4.20;99.90;;;;;;4880747;28;95520;-32
2023/05/03 01:36:15;;;;;;;4.68;2.80;;;4.30;99.90;;;;;;4880664;28;94778;-31
2023/05/03 01:38:41;;;;;;;9.35;2.22;;;4.30;99.90;;;;;;4881115;28;94510;-34
2023/05/03 01:41:12;;;;;;;3.67;2.80;;;4.40;99.90;;;;;;4880492;28;93032;-33
2023/05/03 01:43:39;;;;;;;2.53;2.33;;;4.40;99.90;;;;;;4880975;28;93956;-30
2023/05/03 01:46:05;;;;;;;5.05;2.75;;;4.50;99.90;;;;;;4880940;28;94716;-29
2023/05/03 01:48:31;;;;;;;3.20;2.20;;;4.40;99.90;;;;;;4881265;28;93464;-33
2023/05/03 01:50:57;;;;;;;6.38;2.88;;;4.50;99.90;;;;;;4881383;28;92564;-31
2023/05/03 01:53:22;;;;;;;2.58;2.22;;;4.40;99.90;;;;;;4880165;28;94271;-32
2023/05/03 01:55:48;;;;;;;4.32;2.40;;;4.40;99.90;;;;;;4881628;28;95729;-30
2023/05/03 01:58:13;;;;;;;2.80;2.30;;;4.30;99.90;;;;;;4880684;28;93420;-32
2023/05/03 02:00:39;;;;;;;2.80;1.88;;;4.30;99.90;;;;;;4880780;28;94320;-33
2023/05/03 02:03:05;;;;;;;3.67;2.70;;;4.30;99.90;;;;;;4879713;28;94400;-31
2023/05/03 02:05:30;;;;;;;2.13;1.92;;;4.40;99.90;;;;;;4880919;28;96487;-31
2023/05/03 02:07:56;;;;;;;3.17;2.28;;;4.40;99.90;;;;;;4880215;28;94167;-31
2023/05/03 02:10:21;;;;;;;2.83;2.58;;;4.50;99.90;;;;;;4880672;28;94436;-32
2023/05/03 02:12:47;;;;;;;5.10;3.58;;;4.50;99.90;;;;;;4881331;28;94336;-30
2023/05/03 02:15:13;;;;;;;4.05;2.80;;;4.50;99.90;;;;;;4879956;28;93663;-31
2023/05/03 02:17:39;;;;;;;2.45;1.92;;;4.50;99.90;;;;;;4879728;28;93236;-30
2023/05/03 02:20:08;;;;;;;4.18;2.67;;;4.50;99.90;;;;;;4869852;28;91616;-30
2023/05/03 02:22:34;;;;;;;2.92;2.05;;;4.50;99.90;;;;;;4880134;28;93536;-32
2023/05/03 02:25:00;;;;;;;5.28;2.45;;;4.40;99.90;;;;;;4880748;28;94515;-35
2023/05/03 02:27:25;;;;;;;6.55;2.92;;;4.40;99.90;;;;;;4879942;28;95684;-32
2023/05/03 02:29:51;;;;;;;3.10;2.63;;;4.40;99.90;;;;;;4880201;28;93573;-34
2023/05/03 02:32:17;;;;;;;3.92;2.63;;;4.40;99.90;;;;;;4880418;28;94713;-30
2023/05/03 02:34:45;;;;;;;3.38;2.55;;;4.40;99.90;;;;;;4879769;28;95344;-31
2023/05/03 02:37:11;;;;;;;3.92;2.85;;;4.30;99.90;;;;;;4880344;28;93535;-30
2023/05/03 02:39:37;;;;;;;4.95;3.10;;;4.40;99.90;;;;;;4880268;28;94149;-32
2023/05/03 02:42:02;;;;;;;4.03;3.30;;;4.40;99.90;;;;;;4879267;28;95652;-34
2023/05/03 02:44:28;;;;;;;6.75;3.08;;;4.40;99.90;;;;;;4880421;28;94088;-31
2023/05/03 02:46:54;;;;;;;18.60;4.07;;;4.40;99.90;;;;;;4880374;28;94464;-30
2023/05/03 02:49:20;;;;;;;5.50;2.88;;;4.40;99.90;;;;;;4879412;28;93749;-31
2023/05/03 02:51:45;;;;;;;3.15;2.95;;;4.20;99.90;;;;;;4879429;28;95535;-29
2023/05/03 02:54:11;;;;;;;9.75;3.20;;;4.20;99.90;;;;;;4879490;28;95034;-33
2023/05/03 02:56:37;;;;;;;2.47;1.92;;;4.10;99.90;;;;;;4880195;28;93296;-32
2023/05/03 02:59:03;;;;;;;4.13;2.47;;;4.10;99.90;;;;;;4879805;28;93374;-31
2023/05/03 03:01:28;;;;;;;4.38;2.72;;;4.10;99.90;;;;;;4879901;28;95069;-31
2023/05/03 03:03:54;;;;;;;4.20;2.90;;;4.10;99.90;;;;;;4880044;28;94276;-39
2023/05/03 03:06:20;;;;;;;4.30;2.75;;;4.20;99.90;;;;;;4879229;28;94691;-32
2023/05/03 03:08:46;;;;;;;2.22;2.03;;;4.20;99.90;;;;;;4881037;28;92828;-33
2023/05/03 03:11:12;;;;;;;4.45;2.65;;;4.20;99.90;;;;;;4878856;28;94592;-35
2023/05/03 03:13:39;;;;;;;2.88;2.67;;;4.30;99.90;;;;;;4880240;28;94574;-32
2023/05/03 03:16:08;;;;;;;3.63;3.28;;;4.30;99.90;;;;;;4879560;28;94667;-30
2023/05/03 03:18:34;;;;;;;6.40;2.95;;;4.30;99.90;;;;;;4871546;28;93244;-30
2023/05/03 03:21:03;;;;;;;4.15;3.05;;;4.30;99.90;;;;;;4874983;28;94621;-34
2023/05/03 03:23:29;;;;;;;3.17;2.88;;;4.40;99.90;;;;;;4878990;28;94026;-31
2023/05/03 03:25:55;;;;;;;4.45;2.80;;;4.30;99.90;;;;;;4879549;28;94346;-34
2023/05/03 03:28:20;;;;;;;4.70;3.67;;;4.30;99.90;;;;;;4879638;28;93454;-33
2023/05/03 03:30:46;;;;;;;3.15;2.60;;;4.30;99.90;;;;;;4879097;28;94213;-32
2023/05/03 03:33:12;;;;;;;12.52;4.47;;;4.30;99.90;;;;;;4879615;28;93946;-30
2023/05/03 03:35:38;;;;;;;5.00;2.47;;;4.30;99.90;;;;;;4879544;28;93628;-31
2023/05/03 03:38:04;;;;;;;2.58;2.38;;;4.20;99.90;;;;;;4880018;28;93171;-34
2023/05/03 03:40:30;;;;;;;3.13;2.90;;;4.10;99.90;;;;;;4878690;28;95687;-30
2023/05/03 03:42:56;;;;;;;3.95;2.65;;;4.10;99.90;;;;;;4878582;28;95429;-35
2023/05/03 03:45:22;;;;;;;4.50;3.15;;;4.00;99.90;;;;;;4879520;28;92752;-30
2023/05/03 03:47:47;;;;;;;7.13;3.22;;;4.00;99.90;;;;;;4879422;28;93469;-32
2023/05/03 03:50:13;;;;;;;2.97;2.22;;;4.00;99.90;;;;;;4879436;28;94696;-34
2023/05/03 03:52:39;;;;;;;2.55;2.30;;;4.00;99.90;;;;;;4879146;28;94533;-35
2023/05/03 03:55:05;;;;;;;4.97;2.67;;;4.00;99.90;;;;;;4879427;28;94249;-32
2023/05/03 03:57:30;;;;;;;3.90;3.40;;;4.00;99.90;;;;;;4879813;28;92115;-31
2023/05/03 03:59:57;;;;;;;3.13;2.83;;;4.00;99.90;;;;;;4878669;28;95574;-32
2023/05/03 04:02:23;;;;;;;3.53;2.67;;;4.00;99.90;;;;;;4879326;28;94717;-33
2023/05/03 04:04:49;;;;;;;3.35;2.78;;;4.00;99.90;;;;;;4879850;28;93308;-30
2023/05/03 04:07:15;;;;;;;4.07;2.83;;;4.00;99.90;;;;;;4931872;23;94275;-35
2023/05/03 04:09:40;;;;;;;3.22;2.35;;;4.10;99.90;;;;;;4898405;28;94929;-30
2023/05/03 04:12:07;;;;;;;2.97;2.33;;;4.10;99.90;;;;;;4897850;28;92218;-32
2023/05/03 04:14:33;;;;;;;4.72;2.75;;;4.10;99.90;;;;;;4897195;28;92903;-35
2023/05/03 04:16:58;;;;;;;3.03;2.30;;;4.10;99.90;;;;;;4898424;28;92959;-33
2023/05/03 04:19:25;;;;;;;2.78;2.58;;;4.20;99.90;;;;;;4884316;28;94470;-36
2023/05/03 04:21:51;;;;;;;2.20;2.00;;;4.20;99.90;;;;;;4898554;28;94447;-32
2023/05/03 04:24:17;;;;;;;5.35;3.20;;;4.20;99.90;;;;;;4898664;28;95545;-31
2023/05/03 04:26:45;;;;;;;4.95;2.90;;;4.30;99.90;;;;;;4898250;28;93501;-35
2023/05/03 04:29:11;;;;;;;4.60;2.50;;;4.30;99.90;;;;;;4897244;28;95932;-31
2023/05/03 04:31:38;;;;;;;2.38;2.28;;;4.40;99.90;;;;;;4898012;28;96947;-32
2023/05/03 04:34:03;;;;;;;9.93;3.95;;;4.30;99.90;;;;;;4894509;28;94450;-34
2023/05/03 04:36:30;;;;;;;5.97;2.83;;;4.30;99.90;;;;;;4888765;28;93289;-34
2023/05/03 04:38:56;;;;;;;3.80;2.95;;;4.30;99.90;;;;;;4901380;28;94090;-32
2023/05/03 04:41:23;;;;;;;5.05;3.88;;;4.40;99.90;;;;;;4901121;28;94131;-35
2023/05/03 04:43:49;;;;;;;4.53;2.53;;;4.40;99.90;;;;;;4901413;28;94498;-31
2023/05/03 04:46:15;;;;;;;7.35;2.90;;;4.40;99.90;;;;;;4901329;28;92492;-34
2023/05/03 04:48:41;;;;;;;3.55;3.13;;;4.40;99.90;;;;;;4900972;28;94149;-35
2023/05/03 04:51:06;;;;;;;6.50;3.17;;;4.50;99.90;;;;;;4900837;28;94440;-35
2023/05/03 04:53:32;;;;;;;3.70;3.40;;;4.50;99.90;;;;;;4900155;28;93469;-32
2023/05/03 04:55:58;;;;;;;3.15;2.88;;;4.50;99.90;;;;;;4901325;28;93270;-31
2023/05/03 04:58:23;;;;;;;5.25;3.13;;;4.60;99.90;;;;;;4899963;28;94614;-33
2023/05/03 05:00:49;;;;;;;3.92;3.08;;;4.60;99.90;;;;;;4900920;28;94668;-32
2023/05/03 05:03:15;;;;;;;5.82;3.47;;;4.60;99.90;;;;;;4901190;28;94117;-33
2023/05/03 05:05:40;;;;;;;7.53;4.35;;;4.70;99.90;;;;;;4901360;28;93240;-32
2023/05/03 05:08:06;;;;;;;4.70;3.22;;;4.70;99.90;;;;;;4900127;28;96119;-35
2023/05/03 05:10:35;;;;;;;5.63;3.22;;;4.90;99.90;;;;;;4900894;28;94438;-33
2023/05/03 05:13:01;;;;;;;4.22;2.92;;;4.80;99.90;;;;;;4900432;28;94810;-33
2023/05/03 05:15:26;;;;;;;3.78;3.08;;;4.80;99.90;;;;;;4901533;28;94600;-31
2023/05/03 05:17:52;;;;;;;3.20;2.90;;;4.90;99.90;;;;;;4897162;28;95725;-33
2023/05/03 05:20:18;;;;;;;5.45;3.20;;;4.90;99.90;;;;;;4890265;28;95550;-32
2023/05/03 05:22:43;;;;;;;7.70;3.05;;;4.90;99.90;;;;;;4901134;28;93979;-34
2023/05/03 05:25:09;;;;;;;6.20;3.35;;;5.00;99.90;;;;;;4900225;28;93315;-34
2023/05/03 05:27:35;;;;;;;7.15;3.13;;;5.10;99.90;;;;;;4900900;28;94834;-32
2023/05/03 05:30:01;;;;;;;6.10;4.65;;;5.20;99.90;;;;;;4899932;28;94441;-32
2023/05/03 05:32:26;;;;;;;3.90;3.40;;;5.10;99.90;;;;;;4900295;28;94173;-29
2023/05/03 05:34:54;;;;;;;3.95;2.55;;;5.20;99.90;;;;;;4900667;28;93750;-32
2023/05/03 05:37:23;;;;;;;6.38;3.47;;;5.20;99.90;;;;;;4899488;28;94135;-34
2023/05/03 05:39:49;;;;;;;3.55;3.25;;;5.20;99.90;;;;;;4900554;28;93412;-34
2023/05/03 05:42:15;;;;;;;6.70;4.28;;;5.30;99.90;;;;;;4900047;28;95598;-30
2023/05/03 05:44:40;;;;;;;5.55;3.30;;;5.40;99.90;;;;;;4900030;28;93828;-29
2023/05/03 05:47:07;;;;;;;5.93;3.47;;;5.40;99.90;;;;;;4898799;28;95198;-36
2023/05/03 05:49:32;;;;;;;3.42;2.92;;;5.50;99.90;;;;;;4898548;28;94048;-33
2023/05/03 05:51:58;;;;;;;9.85;3.72;;;5.60;99.90;;;;;;4897410;28;94880;-35
2023/05/03 05:54:24;;;;;;;3.95;3.42;;;5.60;99.90;;;;;;4898465;28;92353;-30
2023/05/03 05:56:49;;;;;;;4.75;3.97;;;5.70;99.90;;;;;;4896064;28;94425;-31
2023/05/03 05:59:15;;;;;;;6.75;3.05;;;5.70;99.90;;;;;;4893558;28;95417;-33
2023/05/03 06:01:44;;;;;;;10.88;3.75;;;5.90;99.90;;;;;;4886300;28;92613;-32
2023/05/03 06:04:10;;;;;;;5.38;3.80;;;6.20;99.90;;;;;;4883393;28;94571;-31
2023/05/03 06:06:36;;;;;;;5.28;3.90;;;6.20;99.90;;;;;;4895895;28;95847;-32
2023/05/03 06:09:02;;;;;;;5.15;4.50;;;6.20;99.90;;;;;;4890517;28;95194;-30
2023/05/03 06:11:28;;;;;;;4.93;3.83;;;6.20;99.90;;;;;;4896756;28;93463;-31
2023/05/03 06:13:55;;;;;;;4.47;3.83;;;6.20;99.90;;;;;;4898573;28;94350;-30
2023/05/03 06:16:21;;;;;;;5.80;3.80;;;6.30;99.90;;;;;;4895681;28;95460;-31
2023/05/03 06:18:46;;;;;;;4.68;4.22;;;6.30;99.90;;;;;;4888189;28;94592;-36
2023/05/03 06:21:12;;;;;;;7.78;4.13;;;6.40;99.90;;;;;;4897631;28;94558;-33
2023/05/03 06:23:39;;;;;;;6.40;3.95;;;6.60;99.90;;;;;;4900053;28;93816;-31
2023/05/03 06:26:05;;;;;;;5.00;4.25;;;6.60;99.90;;;;;;4894679;28;94322;-31
2023/05/03 06:28:31;;;;;;;6.57;4.18;;;6.70;99.90;;;;;;4892442;28;93955;-33
2023/05/03 06:30:56;;;;;;;6.38;3.85;;;6.70;99.90;;;;;;4896831;28;95281;-32
2023/05/03 06:33:22;;;;;;;4.68;3.85;;;6.80;99.90;;;;;;4899918;28;92588;-34
2023/05/03 06:35:48;;;;;;;7.50;3.75;;;6.80;99.90;;;;;;4883380;28;94797;-34
2023/05/03 06:38:13;;;;;;;5.72;3.72;;;6.90;99.90;;;;;;4880750;28;94679;-30
2023/05/03 06:40:40;;;;;;;16.70;4.07;;;7.00;99.90;;;;;;4897044;28;93267;-34
2023/05/03 06:43:06;;;;;;;5.13;3.80;;;7.10;99.90;;;;;;4903020;28;93516;-34
2023/05/03 06:45:32;;;;;;;9.30;5.00;;;7.10;99.90;;;;;;4897491;28;94896;-32
2023/05/03 06:47:57;;;;;;;5.95;4.22;;;7.20;99.90;;;;;;4898064;28;95356;-31
2023/05/03 06:50:23;;;;;;;9.02;4.93;;;7.20;99.90;;;;;;4897644;28;92391;-33
2023/05/03 06:52:49;;;;;;;8.52;4.65;;;7.20;99.90;;;;;;4898266;28;93778;-28
2023/05/03 06:55:16;;;;;;;3.75;3.42;;;7.40;99.90;;;;;;4896495;28;95555;-31
2023/05/03 06:57:42;;;;;;;6.40;5.18;;;7.50;99.90;;;;;;4895713;28;96255;-32
2023/05/03 07:00:08;;;;;;;6.70;4.28;;;7.50;99.90;;;;;;4896953;28;94238;-32
2023/05/03 07:02:34;;;;;;;6.47;3.72;;;7.60;99.90;;;;;;4896573;28;94588;-33
2023/05/03 07:05:00;;;;;;;4.85;4.18;;;7.80;99.90;;;;;;4896063;28;95059;-34
2023/05/03 07:07:25;;;;;;;16.88;4.40;;;7.80;99.90;;;;;;4896590;28;93842;-31
2023/05/03 07:09:51;;;;;;;6.43;3.97;;;7.90;99.90;;;;;;4897668;28;94581;-33
2023/05/03 07:12:17;;;;;;;2.53;2.35;;;8.00;99.90;;;;;;4896713;28;92196;-33
2023/05/03 07:14:42;;;;;;;3.63;2.78;;;8.20;99.90;;;;;;4896615;28;93719;-32
2023/05/03 07:17:09;;;;;;;3.38;3.08;;;8.30;99.90;;;;;;4896822;28;94526;-32
2023/05/03 07:19:36;;;;;;;2.72;2.47;;;8.40;99.90;;;;;;4884088;28;95754;-30
2023/05/03 07:22:02;;;;;;;4.03;2.35;;;8.50;99.90;;;;;;4896931;28;92277;-31
2023/05/03 07:24:28;;;;;;;3.13;1.77;;;8.60;99.90;;;;;;4896017;28;94573;-29
2023/05/03 07:26:53;;;;;;;1.88;1.77;;;8.70;99.90;;;;;;4896163;28;94619;-35
2023/05/03 07:29:19;;;;;;;5.47;2.10;;;8.70;99.90;;;;;;4897129;28;93224;-33
2023/05/03 07:31:45;;;;;;;4.30;3.15;;;8.80;99.90;;;;;;4896291;28;94281;-29
2023/05/03 07:34:11;;;;;;;5.50;2.70;;;8.90;99.90;;;;;;4896220;28;94621;-34
2023/05/03 07:36:38;;;;;;;11.45;2.08;;;8.90;99.90;;;;;;4897053;28;95400;-31
2023/05/03 07:39:07;;;;;;;2.13;2.00;;;8.90;99.90;;;;;;4898104;28;93450;-30
2023/05/03 07:41:32;;;;;;;2.20;2.00;;;9.00;99.90;;;;;;4897751;28;94761;-30
2023/05/03 07:43:58;;;;;;;9.88;3.30;;;9.00;99.90;;;;;;4898453;28;95940;-32
2023/05/03 07:46:24;;;;;;;4.55;3.10;;;9.10;99.90;;;;;;4897626;28;95434;-32
2023/05/03 07:48:49;;;;;;;2.78;2.28;;;9.40;99.90;;;;;;4898807;28;92653;-33
2023/05/03 07:51:15;;;;;;;3.08;2.58;;;9.40;99.90;;;;;;4885689;28;92685;-30
2023/05/03 07:53:40;;;;;;;2.88;2.65;;;9.50;99.90;;;;;;4898323;28;95325;-30
2023/05/03 07:56:06;;;;;;;2.50;1.98;;;9.50;99.90;;;;;;4898198;28;94373;-36
2023/05/03 07:58:32;;;;;;;5.88;2.53;;;9.80;99.90;;;;;;4898537;28;92187;-32
2023/05/03 08:00:58;;;;;;;3.78;2.75;;;9.90;98.50;;;;;;4897687;28;93925;-30
2023/05/03 08:03:23;;;;;;;6.05;2.42;;;9.90;99.90;;;;;;4897273;28;94765;-33
2023/05/03 08:05:49;;;;;;;3.40;3.00;;;9.70;98.20;;;;;;4898573;28;94128;-34
2023/05/03 08:08:15;;;;;;;3.72;3.10;;;9.70;99.90;;;;;;4897717;28;94855;-32
2023/05/03 08:10:40;;;;;;;6.55;2.85;;;9.60;99.90;;;;;;4897657;28;93725;-33
2023/05/03 08:13:06;;;;;;;7.38;2.80;;;9.60;99.90;;;;;;4898011;28;94069;-33
2023/05/03 08:15:32;;;;;;;4.90;2.30;;;9.60;99.90;;;;;;4897745;28;94275;-33
2023/05/03 08:17:59;;;;;;;3.53;3.22;;;9.70;99.90;;;;;;4895336;28;92983;-30
2023/05/03 08:20:28;;;;;;;2.58;2.38;;;9.70;99.90;;;;;;4889481;28;92790;-30
2023/05/03 08:22:56;;;;;;;7.03;2.22;;;9.70;99.90;;;;;;4897396;28;94764;-31
2023/05/03 08:25:24;;;;;;;4.45;2.78;;;9.80;99.90;;;;;;4898356;28;94153;-33
2023/05/03 08:27:51;;;;;;;4.55;3.70;;;9.80;99.90;;;;;;4897850;28;94976;-29
2023/05/03 08:30:16;;;;;;;7.07;2.92;;;9.70;92.70;;;;;;4898182;28;92330;-31
2023/05/03 08:32:42;;;;;;;4.60;2.42;;;9.70;98.20;;;;;;4895890;28;95930;-29
2023/05/03 08:35:08;;;;;;;4.45;3.30;;;9.70;99.90;;;;;;4897367;28;95000;-33
2023/05/03 08:37:38;;;;;;;3.33;2.85;;;9.70;99.90;;;;;;4898061;28;92918;-30
2023/05/03 08:40:05;;;;;;;2.15;1.95;;;9.80;99.90;;;;;;4898660;28;94446;-33
2023/05/03 08:42:32;;;;;;;3.47;2.17;;;9.70;99.90;;;;;;4897814;28;94764;-32
2023/05/03 08:44:58;;;;;;;4.53;2.65;;;9.80;98.70;;;;;;4897842;28;94420;-30
2023/05/03 08:47:26;;;;;;;3.25;2.83;;;9.90;99.90;;;;;;4898000;28;93205;-31
2023/05/03 08:49:52;;;;;;;3.57;2.53;;;9.90;99.90;;;;;;4896358;28;91447;-31
2023/05/03 08:52:20;;;;;;;4.90;3.13;;;9.80;96.50;;;;;;4897604;28;94360;-30
2023/05/03 08:54:48;;;;;;;4.15;2.58;;;9.80;99.90;;;;;;4898243;28;95156;-31
2023/05/03 08:57:14;;;;;;;5.50;3.63;;;9.90;99.90;;;;;;4884704;28;96084;-31
2023/05/03 08:59:53;;;;;;;2.00;1.90;;;10.00;99.90;;;;;;4897682;28;93537;-31
2023/05/03 09:02:18;;;;;;;4.50;3.25;;;9.90;89.20;;;;;;4896878;28;97510;-32
2023/05/03 09:04:44;;;;;;;2.88;2.55;;;9.80;93.00;;;;;;4897724;28;95273;-30
2023/05/03 09:07:11;;;;;;;3.00;2.60;;;9.90;99.60;;;;;;4897139;28;93368;-29
2023/05/03 09:09:37;;;;;;;4.18;2.40;;;9.90;92.00;;;;;;4896623;28;92113;-31
2023/05/03 09:12:03;;;;;;;4.65;2.58;;;10.00;91.30;;;;;;4897392;28;94696;-33
2023/05/03 09:14:30;;;;;;;2.10;2.00;;;10.00;99.90;;;;;;4898086;28;94569;-30
2023/05/03 09:17:12;;;;;;;2.40;2.10;;;10.20;99.90;;;;;;4897642;28;95114;-32
2023/05/03 09:19:51;;;;;;;2.38;1.92;;;10.10;89.10;;;;;;4884360;28;94416;-31
2023/05/03 09:22:17;;;;;;;2.85;2.65;;;10.20;88.50;;;;;;4897072;28;95655;-30
2023/05/03 09:24:59;;;;;;;2.67;2.17;;;10.20;98.30;;;;;;4898634;28;95400;-33
2023/05/03 09:27:26;;;;;;;3.90;2.80;;;10.20;85.50;;;;;;4900649;28;94375;-30
2023/05/03 09:29:52;;;;;;;2.83;2.63;;;10.20;91.20;;;;;;4900083;28;93867;-29
2023/05/03 09:32:19;;;;;;;4.25;3.30;;;10.30;94.20;;;;;;4899953;28;94359;-29
2023/05/03 09:34:45;;;;;;;3.00;2.58;;;10.20;88.40;;;;;;4900143;28;93596;-31
2023/05/03 09:37:13;;;;;;;4.82;2.78;;;10.30;97.30;;;;;;4898947;28;92335;-30
2023/05/03 09:39:41;;;;;;;2.70;2.50;;;10.40;89.00;;;;;;4899911;28;92978;-34
2023/05/03 09:42:24;;;;;;;4.33;2.30;;;10.50;91.40;;;;;;4900143;28;94328;-32
2023/05/03 09:44:50;;;;;;;5.25;2.95;;;10.80;99.90;;;;;;4900810;28;94742;-30
2023/05/03 09:47:17;;;;;;;3.20;2.90;;;11.00;91.80;;;;;;4899819;28;94055;-34
2023/05/03 09:49:43;;;;;;;5.18;3.20;;;11.00;91.90;;;;;;4899282;28;93456;-30
2023/05/03 09:52:10;;;;;;;8.40;3.15;;;10.90;92.80;;;;;;4898809;28;93537;-30
2023/05/03 09:54:36;;;;;;;5.15;3.95;;;10.70;88.00;;;;;;4889506;28;93647;-33
2023/05/03 09:57:04;;;;;;;4.80;2.85;;;10.80;87.50;;;;;;4880707;28;93325;-31
2023/05/03 09:59:35;;;;;;;3.35;3.08;;;10.60;89.60;;;;;;4896442;28;93168;-32
2023/05/03 10:02:06;;;;;;;9.73;2.90;;;10.50;93.80;;;;;;4891061;28;95147;-30
2023/05/03 10:04:43;;;;;;;2.55;2.38;;;10.60;99.90;;;;;;4891021;28;94838;-32
2023/05/03 10:07:13;;;;;;;4.15;2.63;;;11.00;96.40;;;;;;4879620;28;92437;-31
2023/05/03 10:09:41;;;;;;;3.55;3.10;;;11.30;84.60;;;;;;4880440;28;94903;-30
2023/05/03 10:12:10;;;;;;;3.97;3.28;;;11.30;80.80;;;;;;4878831;28;95581;-34
2023/05/03 10:14:36;;;;;;;3.42;3.13;;;11.50;78.60;;;;;;4879929;28;95063;-31
2023/05/03 10:17:06;;;;;;;3.10;2.80;;;11.30;80.80;;;;;;4881928;28;93237;-31
2023/05/03 10:19:34;;;;;;;11.20;4.47;;;11.90;80.80;;;;;;4880090;28;92218;-31
2023/05/03 10:22:08;;;;;;;8.50;4.23;;;12.40;85.90;;;;;;4879765;28;94690;-30
2023/05/03 10:24:35;;;;;;;3.58;3.28;;;12.60;78.70;;;;;;4891312;28;94814;-31
2023/05/03 10:27:01;;;;;;;3.50;2.55;;;12.50;76.20;;;;;;4880613;28;94246;-34
2023/05/03 10:32:03;;;;;;;7.30;3.55;;;12.00;75.30;;;;;;4880397;28;94848;-30
2023/05/03 10:34:33;;;;;;;6.65;3.40;;;12.10;77.00;;;;;;4880828;28;94917;-31
2023/05/03 10:37:10;;;;;;;4.85;3.60;;;12.10;75.90;;;;;;4879736;28;94952;-31
2023/05/03 10:39:36;;;;;;;4.07;3.72;;;11.90;77.10;;;;;;4880401;28;92784;-32
2023/05/03 10:42:06;;;;;;;3.78;3.50;;;11.80;81.60;;;;;;4880731;28;94371;-31
2023/05/03 10:44:48;;;;;;;3.67;2.80;;;11.80;79.70;;;;;;4880181;28;94814;-32
2023/05/03 10:47:25;;;;;;;5.85;3.38;;;11.70;82.30;;;;;;4891176;28;93438;-29
2023/05/03 10:50:15;;;;;;;5.97;3.65;;;11.80;84.30;;;;;;4880220;28;94746;-29
2023/05/03 10:52:41;;;;;;;6.18;3.63;;;11.90;77.50;;;;;;4880210;28;95043;-33
2023/05/03 10:55:15;;;;;;;4.22;3.28;;;11.70;81.40;;;;;;4879302;28;94536;-33
2023/05/03 10:57:42;;;;;;;3.65;3.35;;;11.70;82.10;;;;;;4879574;28;94807;-31
2023/05/03 11:00:13;;;;;;;11.70;3.67;;;11.60;80.60;;;;;;4883532;28;94082;-33
2023/05/03 11:02:52;;;;;;;5.70;3.58;;;11.50;77.90;;;;;;4886865;28;96969;-31
2023/05/03 11:05:18;;;;;;;3.92;3.08;;;11.40;77.70;;;;;;4879586;28;94553;-30
2023/05/03 11:07:44;;;;;;;6.38;4.00;;;11.60;81.10;;;;;;4879603;28;94483;-31
2023/05/03 11:10:19;;;;;;;6.72;4.28;;;11.70;88.30;;;;;;4879349;28;92846;-31
2023/05/03 11:12:45;;;;;;;4.00;3.35;;;12.00;79.30;;;;;;4891760;28;95537;-30
2023/05/03 11:15:11;;;;;;;3.90;3.28;;;12.00;76.40;;;;;;4885750;28;97819;-31
2023/05/03 11:17:37;;;;;;;5.75;3.78;;;12.00;76.10;;;;;;4898306;28;93397;-30
2023/05/03 11:20:09;;;;;;;5.32;3.63;;;12.10;77.60;;;;;;4879607;28;92727;-32
2023/05/03 11:22:35;;;;;;;3.67;3.38;;;12.20;83.50;;;;;;4888656;28;94954;-29
2023/05/03 11:25:01;;;;;;;4.60;3.67;;;12.10;77.00;;;;;;4876673;28;95200;-30
2023/05/03 11:27:27;;;;;;;4.05;3.65;;;12.00;76.80;;;;;;4877240;28;93118;-31
2023/05/03 11:29:57;;;;;;;4.25;3.85;;;12.30;83.20;;;;;;4877340;28;93661;-31
2023/05/03 11:32:29;;;;;;;3.78;3.20;;;12.20;76.10;;;;;;4876971;28;94664;-32
2023/05/03 11:34:55;;;;;;;8.57;3.67;;;11.90;78.10;;;;;;4877322;28;94145;-29
2023/05/03 11:37:21;;;;;;;4.25;3.88;;;12.10;78.60;;;;;;4876903;28;94211;-30
2023/05/03 11:39:47;;;;;;;4.80;4.30;;;12.00;74.80;;;;;;4878132;28;94545;-30
2023/05/03 11:42:12;;;;;;;3.70;3.40;;;12.10;81.00;;;;;;4877001;28;94584;-32
2023/05/03 11:44:38;;;;;;;4.28;2.88;;;12.20;75.30;;;;;;4876905;28;94640;-28
2023/05/03 11:47:04;;;;;;;5.93;4.88;;;12.10;76.20;;;;;;4876031;28;92590;-31
2023/05/03 11:49:30;;;;;;;4.20;3.80;;;12.10;75.00;;;;;;4876736;28;93008;-31
2023/05/03 11:51:55;;;;;;;6.22;4.03;;;12.00;77.70;;;;;;4879296;28;94576;-33
2023/05/03 11:54:22;;;;;;;5.82;4.25;;;11.90;75.50;;;;;;4884805;28;97475;-33
2023/05/03 11:56:53;;;;;;;4.25;3.88;;;12.10;79.00;;;;;;4888558;28;92824;-31
2023/05/03 11:59:19;;;;;;;4.25;3.85;;;12.20;76.50;;;;;;4876097;28;92503;-33
2023/05/03 12:01:48;;;;;;;4.60;4.20;;;12.10;76.60;;;;;;4897034;28;95497;-30
2023/05/03 12:04:15;;;;;;;;;;;12.10;77.00;;;;;;4890618;28;94433;-30
2023/05/03 12:06:40;;;;;;;5.57;3.92;;;12.20;80.70;;;;;;4896199;28;93281;-30
2023/05/03 12:09:13;;;;;;;4.28;3.92;;;12.30;75.60;;;;;;4895629;28;93805;-36
2023/05/03 12:11:40;;;;;;;7.10;4.38;;;12.20;77.80;;;;;;4894656;28;95142;-31
2023/05/03 12:14:06;;;;;;;4.65;4.25;;;12.30;77.00;;;;;;4894335;28;94726;-33
2023/05/03 12:16:46;;;;;;;4.15;3.85;;;12.10;74.40;;;;;;4893668;28;95146;-30
2023/05/03 12:19:29;;;;;;;4.93;4.38;;;12.00;74.10;;;;;;4893199;28;92828;-31
2023/05/03 12:21:55;;;;;;;4.13;3.70;;;12.20;74.80;;;;;;4884438;28;94554;-31
2023/05/03 12:24:22;;;;;;;4.60;3.58;;;12.30;74.60;;;;;;4892789;28;94525;-32
2023/05/03 12:26:51;;;;;;;4.18;3.53;;;12.40;74.80;;;;;;4890704;28;93124;-31
2023/05/03 12:29:16;;;;;;;5.05;3.40;;;12.40;73.00;;;;;;4893913;28;93850;-33
2023/05/03 12:31:43;;;;;;;4.32;4.03;;;12.20;72.50;;;;;;4898174;28;96202;-33
2023/05/03 12:34:09;;;;;;;5.15;4.55;;;12.30;73.80;;;;;;4893608;28;95018;-31
2023/05/03 12:36:34;;;;;;;5.45;4.10;;;12.30;74.70;;;;;;4895258;28;93779;-32
2023/05/03 12:39:01;;;;;;;4.88;4.25;;;12.30;75.70;;;;;;4894101;28;92840;-34
2023/05/03 12:41:30;;;;;;;9.13;4.82;;;12.60;79.50;;;;;;4894378;28;95818;-30
2023/05/03 12:43:57;;;;;;;4.65;3.85;;;12.50;76.80;;;;;;4894207;28;95678;-33
2023/05/03 12:46:23;;;;;;;4.35;3.88;;;12.30;76.10;;;;;;4895215;28;93838;-29
2023/05/03 12:48:49;;;;;;;6.10;4.20;;;12.30;77.20;;;;;;4894309;28;92619;-33
2023/05/03 12:51:14;;;;;;;4.80;4.35;;;12.50;77.90;;;;;;4894382;28;94585;-31
2023/05/03 12:53:40;;;;;;;5.45;4.47;;;12.70;79.10;;;;;;4894327;28;94974;-34
2023/05/03 12:56:06;;;;;;;4.80;4.32;;;12.50;74.70;;;;;;4895523;28;92160;-33
2023/05/03 12:58:33;;;;;;;6.57;4.10;;;12.40;75.20;;;;;;4879335;28;94125;-32